createdAt,value
2022-11-29T00:02:11.595Z,8.04
2022-11-29T00:05:13.110Z,8.05
2022-11-29T00:08:14.521Z,8.06
2022-11-29T00:11:39.633Z,8.08
2022-11-29T00:14:41.995Z,8.05
2022-11-29T00:17:43.716Z,8.08
2022-11-29T00:20:45.104Z,8.10
2022-11-29T00:23:46.501Z,8.09
2022-11-29T00:26:48.214Z,8.10
2022-11-29T00:29:49.602Z,8.09
2022-11-29T00:32:50.995Z,8.09
2022-11-29T00:35:52.416Z,8.10
2022-11-29T00:38:57.819Z,8.09
2022-11-29T00:41:59.246Z,8.07
2022-11-29T00:45:00.642Z,8.06
2022-11-29T00:48:02.033Z,8.03
2022-11-29T00:51:04.891Z,8.03
2022-11-29T00:54:06.296Z,8.01
2022-11-29T00:57:07.698Z,8.04
2022-11-29T01:00:09.816Z,8.02
2022-11-29T01:03:11.214Z,7.98
2022-11-29T01:06:15.207Z,7.98
2022-11-29T01:09:16.620Z,8.00
2022-11-29T01:12:18.062Z,7.99
2022-11-29T01:15:19.562Z,8.04
2022-11-29T01:18:21.066Z,8.06
2022-11-29T01:21:24.128Z,8.05
2022-11-29T01:24:25.708Z,8.00
2022-11-29T01:27:27.099Z,8.00
2022-11-29T01:30:28.563Z,7.97
2022-11-29T01:33:30.000Z,7.95
2022-11-29T01:36:31.690Z,8.00
2022-11-29T01:39:33.125Z,7.99
2022-11-29T01:42:34.634Z,8.01
2022-11-29T01:45:38.482Z,8.06
2022-11-29T01:48:39.889Z,8.04
2022-11-29T01:51:45.774Z,8.02
2022-11-29T01:54:50.080Z,8.02
2022-11-29T01:57:51.840Z,8.06
2022-11-29T02:00:53.342Z,8.02
2022-11-29T02:03:54.822Z,7.99
2022-11-29T02:06:56.227Z,8.01
2022-11-29T02:09:57.601Z,8.09
2022-11-29T02:13:29.262Z,8.09
2022-11-29T02:16:37.728Z,8.07
2022-11-29T02:19:51.079Z,8.06
2022-11-29T02:23:31.107Z,8.05
2022-11-29T02:26:57.350Z,8.08
2022-11-29T02:30:21.337Z,8.07
2022-11-29T02:33:33.502Z,8.05
2022-11-29T02:36:50.373Z,8.07
2022-11-29T02:40:06.885Z,8.11
2022-11-29T02:43:18.389Z,8.12
2022-11-29T02:46:51.986Z,8.13
2022-11-29T02:50:20.681Z,8.16
2022-11-29T02:53:37.122Z,8.17
2022-11-29T02:57:29.500Z,8.17
2022-11-29T03:00:35.397Z,8.18
2022-11-29T03:03:43.304Z,8.20
2022-11-29T03:07:12.954Z,8.21
2022-11-29T03:10:43.741Z,8.16
2022-11-29T03:14:02.469Z,8.14
2022-11-29T03:17:12.696Z,8.18
2022-11-29T03:20:32.946Z,8.21
2022-11-29T03:23:39.010Z,8.23
2022-11-29T03:26:55.384Z,8.22
2022-11-29T03:30:00.609Z,8.19
2022-11-29T03:33:12.278Z,8.16
2022-11-29T03:36:51.289Z,8.17
2022-11-29T03:40:06.026Z,8.17
2022-11-29T03:43:19.221Z,8.17
2022-11-29T03:46:23.453Z,8.18
2022-11-29T03:49:37.600Z,8.17
2022-11-29T03:52:52.088Z,8.20
2022-11-29T03:55:58.701Z,8.20
2022-11-29T03:59:29.979Z,8.21
2022-11-29T04:03:00.727Z,8.23
2022-11-29T04:06:14.227Z,8.24
2022-11-29T04:09:34.100Z,8.24
2022-11-29T04:13:06.322Z,8.27
2022-11-29T04:16:24.298Z,8.27
2022-11-29T04:19:57.551Z,8.28
2022-11-29T04:23:32.445Z,8.30
2022-11-29T04:26:48.834Z,8.29
2022-11-29T04:30:01.104Z,8.31
2022-11-29T04:33:20.950Z,8.29
2022-11-29T04:36:57.008Z,8.18
2022-11-29T04:40:35.613Z,8.18
2022-11-29T04:43:58.299Z,8.13
2022-11-29T04:47:20.255Z,8.17
2022-11-29T04:50:46.306Z,8.17
2022-11-29T04:54:01.912Z,8.19
2022-11-29T04:57:15.352Z,8.21
2022-11-29T05:00:21.148Z,8.26
2022-11-29T05:03:40.011Z,8.22
2022-11-29T05:07:19.591Z,8.23
2022-11-29T05:10:40.055Z,8.23
2022-11-29T05:14:02.267Z,8.23
2022-11-29T05:17:21.355Z,8.23
2022-11-29T05:20:31.521Z,8.27
2022-11-29T05:23:48.288Z,8.28
2022-11-29T05:27:01.551Z,8.30
2022-11-29T05:30:11.284Z,8.29
2022-11-29T05:33:50.751Z,8.22
2022-11-29T05:37:10.682Z,8.22
2022-11-29T05:40:38.609Z,8.20
2022-11-29T05:44:11.201Z,8.16
2022-11-29T05:47:20.467Z,8.12
2022-11-29T05:50:30.598Z,8.10
2022-11-29T05:54:03.182Z,8.07
2022-11-29T05:57:29.497Z,8.05
2022-11-29T06:00:44.358Z,8.05
2022-11-29T06:03:58.679Z,8.06
2022-11-29T06:07:42.175Z,8.09
2022-11-29T06:11:04.288Z,8.04
2022-11-29T06:14:29.757Z,8.00
2022-11-29T06:17:49.768Z,7.96
2022-11-29T06:21:16.255Z,8.06
2022-11-29T06:24:43.122Z,8.07
2022-11-29T06:28:06.628Z,8.07
2022-11-29T06:31:19.712Z,8.02
2022-11-29T06:34:35.652Z,8.00
2022-11-29T06:37:41.642Z,8.02
2022-11-29T06:40:43.369Z,8.00
2022-11-29T06:43:45.293Z,7.97
2022-11-29T06:46:51.583Z,7.99
2022-11-29T06:50:36.774Z,8.00
2022-11-29T06:54:08.684Z,8.11
2022-11-29T06:57:58.108Z,8.07
2022-11-29T07:01:26.994Z,8.05
2022-11-29T07:04:45.709Z,8.04
2022-11-29T07:07:48.519Z,8.05
2022-11-29T07:10:53.112Z,8.04
2022-11-29T07:13:54.921Z,8.02
2022-11-29T07:17:34.924Z,8.04
2022-11-29T07:20:42.425Z,8.05
2022-11-29T07:24:08.581Z,8.03
2022-11-29T07:27:21.116Z,8.03
2022-11-29T07:30:31.551Z,8.04
2022-11-29T07:33:40.893Z,8.07
2022-11-29T07:37:06.310Z,8.10
2022-11-29T07:40:19.665Z,8.30
2022-11-29T07:43:45.862Z,8.22
2022-11-29T07:46:47.284Z,8.21
2022-11-29T07:49:48.718Z,8.20
2022-11-29T07:52:50.214Z,8.32
2022-11-29T07:55:51.821Z,8.42
2022-11-29T07:58:53.281Z,8.39
2022-11-29T08:01:55.497Z,8.33
2022-11-29T08:04:57.774Z,8.32
2022-11-29T08:07:59.707Z,8.25
2022-11-29T08:11:01.212Z,8.35
2022-11-29T08:14:05.248Z,8.29
2022-11-29T08:17:06.882Z,8.34
2022-11-29T08:20:09.539Z,8.36
2022-11-29T08:23:12.588Z,8.32
2022-11-29T08:26:15.029Z,8.35
2022-11-29T08:29:16.738Z,8.27
2022-11-29T08:32:18.257Z,8.35
2022-11-29T08:35:21.747Z,8.33
2022-11-29T08:38:23.128Z,8.41
2022-11-29T08:41:24.563Z,8.44
2022-11-29T08:44:26.051Z,8.46
2022-11-29T08:47:36.512Z,8.38
2022-11-29T08:50:37.983Z,8.41
2022-11-29T08:53:42.316Z,8.41
2022-11-29T09:00:06.183Z,8.44
2022-11-29T09:03:26.772Z,8.43
2022-11-29T09:06:33.561Z,8.41
2022-11-29T09:09:34.963Z,8.45
2022-11-29T09:12:41.189Z,8.38
2022-11-29T09:15:43.480Z,8.28
2022-11-29T09:18:51.260Z,8.38
2022-11-29T09:21:53.209Z,8.41
2022-11-29T09:24:54.755Z,8.42
2022-11-29T09:27:58.908Z,8.42
2022-11-29T09:31:08.417Z,8.54
2022-11-29T09:34:14.142Z,8.59
2022-11-29T09:37:15.542Z,8.58
2022-11-29T09:40:20.860Z,8.61
2022-11-29T09:43:54.986Z,8.54
2022-11-29T09:47:13.365Z,8.56
2022-11-29T09:50:35.549Z,8.54
2022-11-29T09:53:39.853Z,8.48
2022-11-29T09:56:45.737Z,8.48
2022-11-29T09:59:56.493Z,8.45
2022-11-29T10:03:09.930Z,8.45
2022-11-29T10:06:22.252Z,8.49
2022-11-29T10:09:33.883Z,8.48
2022-11-29T10:12:40.532Z,8.50
2022-11-29T10:15:45.609Z,8.59
2022-11-29T10:18:59.864Z,8.61
2022-11-29T10:22:13.577Z,8.57
2022-11-29T10:25:33.653Z,8.59
2022-11-29T10:28:37.147Z,8.60
2022-11-29T10:31:43.893Z,8.64
2022-11-29T10:34:45.814Z,8.74
2022-11-29T10:38:14.651Z,8.84
2022-11-29T10:41:16.514Z,8.85
2022-11-29T10:44:18.005Z,8.82
2022-11-29T10:47:19.462Z,8.92
2022-11-29T10:50:27.561Z,8.93
2022-11-29T10:53:38.131Z,8.91
2022-11-29T10:56:41.088Z,8.91
2022-11-29T11:00:00.579Z,8.98
2022-11-29T11:03:23.023Z,9.05
2022-11-29T11:06:25.943Z,9.06
2022-11-29T11:09:27.273Z,9.08
2022-11-29T11:12:31.518Z,9.00
2022-11-29T11:15:32.986Z,8.91
2022-11-29T11:18:34.943Z,8.83
2022-11-29T11:21:38.466Z,8.85
2022-11-29T11:24:41.815Z,9.02
2022-11-29T11:27:43.247Z,9.29
2022-11-29T11:30:57.467Z,9.30
2022-11-29T11:34:34.568Z,9.35
2022-11-29T11:37:35.959Z,9.32
2022-11-29T11:40:37.367Z,9.29
2022-11-29T11:43:39.497Z,9.20
2022-11-29T11:46:48.160Z,9.24
2022-11-29T11:50:02.218Z,9.27
2022-11-29T11:53:07.860Z,9.24
2022-11-29T11:56:12.425Z,9.12
2022-11-29T11:59:24.371Z,9.01
2022-11-29T12:02:27.193Z,8.96
2022-11-29T12:05:28.669Z,8.93
2022-11-29T12:08:30.975Z,9.05
2022-11-29T12:11:41.176Z,9.18
2022-11-29T12:14:55.627Z,9.17
2022-11-29T12:18:12.173Z,9.22
2022-11-29T12:21:23.577Z,9.13
2022-11-29T12:24:37.863Z,9.09
2022-11-29T12:27:39.297Z,9.17
2022-11-29T12:30:47.589Z,9.13
2022-11-29T12:34:05.566Z,9.18
2022-11-29T12:37:24.852Z,9.29
2022-11-29T12:40:39.630Z,9.24
2022-11-29T12:44:05.481Z,9.28
2022-11-29T12:47:37.902Z,9.23
2022-11-29T12:50:48.851Z,9.27
2022-11-29T12:54:21.308Z,9.21
2022-11-29T12:57:43.354Z,9.14
2022-11-29T13:00:57.406Z,9.04
2022-11-29T13:04:14.171Z,9.07
2022-11-29T13:07:42.810Z,9.12
2022-11-29T13:11:10.841Z,9.09
2022-11-29T13:14:41.978Z,9.13
2022-11-29T13:17:52.210Z,9.17
2022-11-29T13:21:04.699Z,9.17
2022-11-29T13:24:26.079Z,9.15
2022-11-29T13:27:33.022Z,9.19
2022-11-29T13:30:35.654Z,9.27
2022-11-29T13:33:46.123Z,9.23
2022-11-29T13:37:19.476Z,9.34
2022-11-29T13:40:20.896Z,9.28
2022-11-29T13:43:36.635Z,9.33
2022-11-29T13:46:47.214Z,9.29
2022-11-29T13:49:50.075Z,9.31
2022-11-29T13:53:03.495Z,9.19
2022-11-29T13:56:05.519Z,9.21
2022-11-29T13:59:14.027Z,9.30
2022-11-29T14:02:31.029Z,9.40
2022-11-29T14:05:37.985Z,9.41
2022-11-29T14:09:17.941Z,9.34
2022-11-29T14:12:31.039Z,9.32
2022-11-29T14:15:33.251Z,9.27
2022-11-29T14:18:37.649Z,9.21
2022-11-29T14:22:06.941Z,9.25
2022-11-29T14:25:50.669Z,9.34
2022-11-29T14:28:47.525Z,9.29
2022-11-29T14:31:51.357Z,9.33
2022-11-29T14:35:21.852Z,9.35
2022-11-29T14:38:32.655Z,9.28
2022-11-29T14:42:01.008Z,9.08
2022-11-29T14:45:06.045Z,9.09
2022-11-29T14:48:25.446Z,9.11
2022-11-29T14:51:30.499Z,9.04
2022-11-29T14:54:33.292Z,9.05
2022-11-29T14:57:49.992Z,9.01
2022-11-29T15:01:02.711Z,8.89
2022-11-29T15:04:09.556Z,8.88
2022-11-29T15:07:18.087Z,8.93
2022-11-29T15:10:24.349Z,8.83
2022-11-29T15:13:31.684Z,8.81
2022-11-29T15:16:49.244Z,8.80
2022-11-29T15:20:22.969Z,8.85
2022-11-29T15:23:24.433Z,8.84
2022-11-29T15:26:25.847Z,8.82
2022-11-29T15:29:29.403Z,8.83
2022-11-29T15:32:32.555Z,8.95
2022-11-29T15:35:35.766Z,8.99
2022-11-29T15:38:56.443Z,9.01
2022-11-29T15:42:10.418Z,9.13
2022-11-29T15:45:32.599Z,9.23
2022-11-29T15:48:34.179Z,9.24
2022-11-29T15:51:38.178Z,9.23
2022-11-29T15:54:45.884Z,9.21
2022-11-29T15:57:52.234Z,9.24
2022-11-29T16:00:54.580Z,9.21
2022-11-29T16:03:57.824Z,9.25
2022-11-29T16:06:59.500Z,9.30
2022-11-29T16:10:11.732Z,9.34
2022-11-29T16:13:25.315Z,9.30
2022-11-29T16:16:28.663Z,9.23
2022-11-29T16:19:37.853Z,9.24
2022-11-29T16:22:39.418Z,9.23
2022-11-29T16:26:01.148Z,9.25
2022-11-29T16:29:02.762Z,9.22
2022-11-29T16:32:19.105Z,9.24
2022-11-29T16:35:33.688Z,9.16
2022-11-29T16:38:35.246Z,9.18
2022-11-29T16:41:38.299Z,9.20
2022-11-29T16:44:39.636Z,9.13
2022-11-29T16:47:57.944Z,9.11
2022-11-29T16:51:13.218Z,9.05
2022-11-29T16:54:23.951Z,9.02
2022-11-29T16:57:27.211Z,9.02
2022-11-29T17:00:32.041Z,8.98
2022-11-29T17:03:34.381Z,9.00
2022-11-29T17:06:36.351Z,8.94
2022-11-29T17:09:37.994Z,8.93
2022-11-29T17:12:42.220Z,8.93
2022-11-29T17:15:47.811Z,9.06
2022-11-29T17:18:49.568Z,9.11
2022-11-29T17:21:51.595Z,9.09
2022-11-29T17:24:53.421Z,9.06
2022-11-29T17:27:55.791Z,9.09
2022-11-29T17:30:57.333Z,9.11
2022-11-29T17:34:00.677Z,9.15
2022-11-29T17:37:02.156Z,9.17
2022-11-29T17:40:03.878Z,9.17
2022-11-29T17:43:06.555Z,9.19
2022-11-29T17:46:22.831Z,9.23
2022-11-29T17:49:24.313Z,9.21
2022-11-29T17:52:25.832Z,9.19
2022-11-29T17:55:29.653Z,9.15
2022-11-29T17:58:32.633Z,9.12
2022-11-29T18:01:36.084Z,9.06
2022-11-29T18:04:41.851Z,8.95
2022-11-29T18:07:57.853Z,8.90
2022-11-29T18:11:04.342Z,8.89
2022-11-29T18:14:06.276Z,8.85
2022-11-29T18:17:07.830Z,8.82
2022-11-29T18:20:09.609Z,8.78
2022-11-29T18:23:11.045Z,8.78
2022-11-29T18:26:15.511Z,8.81
2022-11-29T18:29:17.071Z,8.87
2022-11-29T18:32:18.483Z,8.92
2022-11-29T18:35:19.930Z,8.93
2022-11-29T18:38:21.349Z,8.97
2022-11-29T18:41:23.719Z,9.01
2022-11-29T18:44:29.282Z,8.98
2022-11-29T18:47:32.820Z,8.97
2022-11-29T18:50:34.327Z,8.94
2022-11-29T18:53:36.817Z,8.97
2022-11-29T18:56:38.866Z,8.98
2022-11-29T18:59:40.296Z,8.92
2022-11-29T19:02:41.778Z,8.96
2022-11-29T19:05:53.902Z,8.93
2022-11-29T19:08:58.212Z,8.90
2022-11-29T19:11:59.643Z,8.82
2022-11-29T19:15:01.041Z,8.75
2022-11-29T19:18:02.443Z,8.74
2022-11-29T19:21:10.080Z,8.74
2022-11-29T19:24:14.582Z,8.67
2022-11-29T19:27:16.482Z,8.65
2022-11-29T19:30:17.966Z,8.67
2022-11-29T19:33:19.360Z,8.64
2022-11-29T19:36:22.341Z,8.63
2022-11-29T19:39:23.798Z,8.61
2022-11-29T19:42:25.843Z,8.64
2022-11-29T19:45:27.322Z,8.64
2022-11-29T19:48:28.750Z,8.63
2022-11-29T19:51:31.294Z,8.69
2022-11-29T19:54:32.688Z,8.75
2022-11-29T19:57:34.092Z,8.76
2022-11-29T20:00:35.476Z,8.69
2022-11-29T20:03:37.627Z,8.71
2022-11-29T20:06:39.649Z,8.76
2022-11-29T20:09:41.040Z,8.79
2022-11-29T20:12:42.513Z,8.77
2022-11-29T20:15:44.154Z,8.71
2022-11-29T20:18:51.155Z,8.68
2022-11-29T20:21:53.963Z,8.71
2022-11-29T20:24:55.950Z,8.68
2022-11-29T20:27:57.381Z,8.60
2022-11-29T20:31:07.812Z,8.53
2022-11-29T20:34:11.985Z,8.47
2022-11-29T20:37:25.372Z,8.45
2022-11-29T20:41:02.445Z,8.37
2022-11-29T20:44:04.836Z,8.34
2022-11-29T20:47:21.254Z,8.36
2022-11-29T20:50:25.819Z,8.33
2022-11-29T20:53:42.591Z,8.31
2022-11-29T20:56:43.990Z,8.29
2022-11-29T20:59:45.638Z,8.36
2022-11-29T21:02:47.360Z,8.36
2022-11-29T21:05:49.686Z,8.37
2022-11-29T21:08:51.196Z,8.29
2022-11-29T21:11:52.960Z,8.31
2022-11-29T21:14:54.676Z,8.35
2022-11-29T21:17:56.550Z,8.38
2022-11-29T21:21:16.936Z,8.38
2022-11-29T21:24:24.397Z,8.37
2022-11-29T21:27:31.777Z,8.37
2022-11-29T21:30:33.450Z,8.41
2022-11-29T21:33:35.084Z,8.42
2022-11-29T21:36:37.965Z,8.39
2022-11-29T21:39:39.377Z,8.43
2022-11-29T21:42:41.097Z,8.44
2022-11-29T21:45:42.596Z,8.48
2022-11-29T21:48:44.513Z,8.40
2022-11-29T21:51:45.943Z,8.35
2022-11-29T21:54:47.543Z,8.26
2022-11-29T21:57:49.119Z,8.17
2022-11-29T22:00:50.529Z,8.07
2022-11-29T22:03:53.437Z,8.01
2022-11-29T22:06:54.967Z,7.98
2022-11-29T22:09:56.376Z,8.02
2022-11-29T22:12:58.999Z,8.06
2022-11-29T22:16:05.242Z,8.13
2022-11-29T22:19:06.665Z,8.13
2022-11-29T22:22:10.634Z,8.14
2022-11-29T22:25:12.070Z,8.13
2022-11-29T22:28:13.451Z,8.15
2022-11-29T22:31:14.991Z,8.17
2022-11-29T22:34:16.622Z,8.19
2022-11-29T22:37:18.011Z,8.19
2022-11-29T22:40:19.463Z,8.23
2022-11-29T22:43:20.853Z,8.24
2022-11-29T22:46:24.398Z,8.21
2022-11-29T22:49:25.841Z,8.22
2022-11-29T22:52:27.311Z,8.24
2022-11-29T22:55:28.709Z,8.24
2022-11-29T22:58:30.229Z,8.29
2022-11-29T23:01:33.924Z,8.26
2022-11-29T23:04:35.308Z,8.23
2022-11-29T23:07:36.926Z,8.15
2022-11-29T23:10:38.339Z,8.15
2022-11-29T23:13:42.255Z,8.14
2022-11-29T23:16:44.767Z,8.20
2022-11-29T23:19:46.265Z,8.21
2022-11-29T23:22:47.698Z,8.19
2022-11-29T23:25:49.595Z,8.13
2022-11-29T23:28:51.755Z,8.12
2022-11-29T23:31:53.308Z,8.10
2022-11-29T23:34:54.789Z,8.09
2022-11-29T23:37:56.209Z,8.07
2022-11-29T23:40:57.907Z,8.04
2022-11-29T23:44:01.935Z,8.05
2022-11-29T23:47:03.457Z,7.98
2022-11-29T23:50:05.434Z,7.92
2022-11-29T23:53:06.850Z,7.83
2022-11-29T23:56:12.623Z,7.79
2022-11-29T23:59:14.112Z,7.78
